Time;durP1;ratioP1;P1;durP2;ratioP2;P2;SDS_P1;SDS_P2;PMS_P1;PMS_P2;Temp;Humidity;BMP_temperature;BMP_pressure;BME280_temperature;BME280_humidity;BME280_pressure;Samples;Min_cycle;Max_cycle;Signal;HPM_P1;HPM_P2
2022/10/05 00:00:14;;;;;;;;;;;;;;;;;;5029911;28;20011;-56
2022/10/05 00:02:39;;;;;;;;;;;;;;;;;;5028172;28;19917;-56
2022/10/05 00:05:15;;;;;;;;;;;;;;;;;;5029749;28;20362;-56
2022/10/05 00:07:40;;;;;;;;;;;;;;;;;;5028117;28;19963;-57
2022/10/05 00:10:09;;;;;;;;;;;;;;;;;;5031026;28;19916;-56
2022/10/05 00:12:34;;;;;;;;;;;;;;;;;;5028975;28;20366;-57
2022/10/05 00:15:00;;;;;;;;;;;;;;;;;;5028277;28;19916;-57
2022/10/05 00:17:26;;;;;;;;;;;;;;;;;;5028123;28;20442;-57
2022/10/05 00:19:52;;;;;;;;;;;;;;;;;;5028916;28;19921;-57
2022/10/05 00:22:18;;;;;;;;;;;;;;;;;;5062040;28;20389;-56
2022/10/05 00:24:44;;;;;;;;;;;;;;;;;;5030087;28;19916;-57
2022/10/05 00:27:13;;;;;;;;;;;;;;;;;;5030116;28;19920;-56
2022/10/05 00:29:38;;;;;;;;;;;;;;;;;;5026880;28;20012;-56
2022/10/05 00:32:03;;;;;;;;;;;;;;;;;;5030841;28;20011;-57
2022/10/05 00:34:32;;;;;;;;;;;;;;;;;;5033953;28;20353;-57
2022/10/05 00:36:57;;;;;;;;;;;;;;;;;;5031281;28;20168;-56
2022/10/05 00:39:22;;;;;;;;;;;;;;;;;;5031935;28;19915;-56
2022/10/05 00:41:53;;;;;;;;;;;;;;;;;;5029774;28;20012;-56
2022/10/05 00:44:19;;;;;;;;;;;;;;;;;;5031975;28;20341;-56
2022/10/05 00:46:55;;;;;;;;;;;;;;;;;;5032012;28;19913;-57
2022/10/05 00:49:39;;;;;;;;;;;;;;;;;;5032327;28;19971;-56
2022/10/05 00:52:23;;;;;;;;;;;;;;;;;;5031073;28;20000;-56
2022/10/05 00:54:53;;;;;;;;;;;;;;;;;;5030889;28;19956;-56
2022/10/05 00:57:30;;;;;;;;;;;;;;;;;;5032200;28;19917;-56
2022/10/05 00:59:58;;;;;;;;;;;;;;;;;;5032245;28;20014;-56
2022/10/05 01:02:24;;;;;;;;;;;;;;;;;;5030777;28;19913;-57
2022/10/05 01:05:18;;;;;;;;;;;;;;;;;;5033800;28;19919;-56
2022/10/05 01:07:56;;;;;;;;;;;;;;;;;;5026825;28;19913;-56
2022/10/05 01:10:26;;;;;;;;;;;;;;;;;;5031947;28;20298;-56
2022/10/05 01:13:07;;;;;;;;;;;;;;;;;;5030546;28;19962;-57
2022/10/05 01:15:32;;;;;;;;;;;;;;;;;;5029316;28;20358;-57
2022/10/05 01:18:03;;;;;;;;;;;;;;;;;;5033206;28;19920;-56
2022/10/05 01:20:38;;;;;;;;;;;;;;;;;;5032388;28;19955;-56
2022/10/05 01:23:07;;;;;;;;;;;;;;;;;;5030879;28;19913;-56
2022/10/05 01:25:35;;;;;;;;;;;;;;;;;;5033607;28;20293;-56
2022/10/05 01:28:02;;;;;;;;;;;;;;;;;;5030862;28;20306;-56
2022/10/05 01:30:34;;;;;;;;;;;;;;;;;;5033919;28;19996;-55
2022/10/05 01:33:12;;;;;;;;;;;;;;;;;;5029024;28;19962;-57
2022/10/05 01:35:37;;;;;;;;;;;;;;;;;;5033870;28;19909;-57
2022/10/05 01:38:09;;;;;;;;;;;;;;;;;;5036527;28;19917;-57
2022/10/05 01:40:34;;;;;;;;;;;;;;;;;;5030786;28;20018;-56
2022/10/05 01:43:06;;;;;;;;;;;;;;;;;;5029313;28;19996;-56
2022/10/05 01:45:34;;;;;;;;;;;;;;;;;;5031066;28;19917;-56
2022/10/05 01:48:08;;;;;;;;;;;;;;;;;;5031841;28;19909;-56
2022/10/05 01:50:43;;;;;;;;;;;;;;;;;;5027372;28;19959;-56
2022/10/05 01:53:14;;;;;;;;;;;;;;;;;;5030785;28;19920;-56
2022/10/05 01:55:39;;;;;;;;;;;;;;;;;;5031651;28;19912;-56
2022/10/05 01:58:09;;;;;;;;;;;;;;;;;;5029229;28;19967;-55
2022/10/05 02:00:57;;;;;;;;;;;;;;;;;;5032731;28;19966;-55
2022/10/05 02:03:25;;;;;;;;;;;;;;;;;;5024924;28;20379;-55
2022/10/05 02:05:54;;;;;;;;;;;;;;;;;;5030999;28;20401;-56
2022/10/05 02:08:25;;;;;;;;;;;;;;;;;;5030590;28;19917;-55
2022/10/05 02:10:56;;;;;;;;;;;;;;;;;;5030842;28;19921;-56
2022/10/05 02:13:28;;;;;;;;;;;;;;;;;;5030975;28;19923;-56
2022/10/05 02:15:57;;;;;;;;;;;;;;;;;;5029134;28;19921;-56
2022/10/05 02:18:25;;;;;;;;;;;;;;;;;;5030705;28;19920;-56
2022/10/05 02:20:52;;;;;;;;;;;;;;;;;;5030390;28;20465;-55
2022/10/05 02:23:20;;;;;;;;;;;;;;;;;;5030170;28;19917;-56
2022/10/05 02:25:46;;;;;;;;;;;;;;;;;;5029716;28;19913;-56
2022/10/05 02:28:11;;;;;;;;;;;;;;;;;;5034586;28;19913;-56
2022/10/05 02:30:39;;;;;;;;;;;;;;;;;;5030644;28;19913;-56
2022/10/05 02:33:25;;;;;;;;;;;;;;;;;;5029983;28;19920;-55
2022/10/05 02:35:50;;;;;;;;;;;;;;;;;;5030493;28;19920;-56
2022/10/05 02:38:25;;;;;;;;;;;;;;;;;;5030061;28;19917;-56
2022/10/05 02:41:03;;;;;;;;;;;;;;;;;;5030071;28;19948;-56
2022/10/05 02:43:38;;;;;;;;;;;;;;;;;;5029017;28;19917;-56
2022/10/05 02:46:04;;;;;;;;;;;;;;;;;;5027162;28;20371;-56
2022/10/05 02:48:48;;;;;;;;;;;;;;;;;;5030509;28;19917;-55
2022/10/05 02:51:23;;;;;;;;;;;;;;;;;;5025612;28;19913;-56
2022/10/05 02:54:03;;;;;;;;;;;;;;;;;;5030444;28;19924;-56
2022/10/05 02:56:31;;;;;;;;;;;;;;;;;;5030000;28;19920;-55
2022/10/05 02:59:05;;;;;;;;;;;;;;;;;;5030080;28;19959;-55
2022/10/05 03:01:33;;;;;;;;;;;;;;;;;;5027132;28;19960;-56
2022/10/05 03:04:07;;;;;;;;;;;;;;;;;;5029642;28;20394;-56
2022/10/05 03:06:36;;;;;;;;;;;;;;;;;;5029767;28;20275;-55
2022/10/05 03:09:02;;;;;;;;;;;;;;;;;;5031726;28;19921;-55
2022/10/05 03:11:28;;;;;;;;;;;;;;;;;;5028802;28;19913;-55
2022/10/05 03:13:53;;;;;;;;;;;;;;;;;;5029531;28;19936;-56
2022/10/05 03:16:37;;;;;;;;;;;;;;;;;;5028416;28;20370;-56
2022/10/05 03:19:17;;;;;;;;;;;;;;;;;;5030421;28;19913;-55
2022/10/05 03:21:45;;;;;;;;;;;;;;;;;;5029055;28;19941;-57
2022/10/05 03:24:28;;;;;;;;;;;;;;;;;;5031692;28;20004;-56
2022/10/05 03:27:02;;;;;;;;;;;;;;;;;;5029583;28;19931;-55
2022/10/05 03:29:30;;;;;;;;;;;;;;;;;;5032853;28;20027;-56
2022/10/05 03:32:11;;;;;;;;;;;;;;;;;;5029279;28;20362;-56
2022/10/05 03:34:36;;;;;;;;;;;;;;;;;;5028916;28;19927;-56
2022/10/05 03:37:01;;;;;;;;;;;;;;;;;;5030111;28;19913;-56
2022/10/05 03:39:31;;;;;;;;;;;;;;;;;;5028960;28;20448;-56
2022/10/05 03:42:07;;;;;;;;;;;;;;;;;;5028801;28;20287;-55
2022/10/05 03:44:32;;;;;;;;;;;;;;;;;;5029687;28;19920;-56
2022/10/05 03:47:04;;;;;;;;;;;;;;;;;;5029335;28;19912;-55
2022/10/05 03:49:46;;;;;;;;;;;;;;;;;;5029577;28;19916;-56
2022/10/05 03:52:22;;;;;;;;;;;;;;;;;;5029061;28;19913;-56
2022/10/05 03:54:53;;;;;;;;;;;;;;;;;;5028932;28;20297;-56
2022/10/05 03:57:20;;;;;;;;;;;;;;;;;;5041848;28;20341;-55
2022/10/05 04:00:06;;;;;;;;;;;;;;;;;;5031631;28;20335;-56
2022/10/05 04:02:40;;;;;;;;;;;;;;;;;;5060016;28;19959;-55
2022/10/05 04:05:05;;;;;;;;;;;;;;;;;;5027850;28;19913;-56
2022/10/05 04:07:52;;;;;;;;;;;;;;;;;;5032719;28;19920;-55
2022/10/05 04:10:24;;;;;;;;;;;;;;;;;;5028196;28;19913;-56
2022/10/05 04:13:21;;;;;;;;;;;;;;;;;;5025931;28;19920;-55
2022/10/05 04:15:47;;;;;;;;;;;;;;;;;;5004577;28;19924;-56
2022/10/05 04:18:18;;;;;;;;;;;;;;;;;;5030768;28;19913;-55
2022/10/05 04:20:45;;;;;;;;;;;;;;;;;;5033352;28;20401;-55
2022/10/05 04:23:20;;;;;;;;;;;;;;;;;;5027992;28;19916;-55
2022/10/05 04:25:48;;;;;;;;;;;;;;;;;;5027591;28;22157;-55
2022/10/05 04:28:16;;;;;;;;;;;;;;;;;;5026725;28;19917;-55
2022/10/05 04:30:45;;;;;;;;;;;;;;;;;;5029832;28;19935;-56
2022/10/05 04:33:12;;;;;;;;;;;;;;;;;;5033558;28;19971;-56
2022/10/05 04:35:58;;;;;;;;;;;;;;;;;;5028569;28;19920;-55
2022/10/05 04:38:35;;;;;;;;;;;;;;;;;;5017226;28;19913;-56
2022/10/05 04:41:15;;;;;;;;;;;;;;;;;;5030799;28;20405;-55
2022/10/05 04:43:59;;;;;;;;;;;;;;;;;;5027778;28;19994;-56
2022/10/05 04:46:39;;;;;;;;;;;;;;;;;;5027829;28;20367;-55
2022/10/05 04:49:20;;;;;;;;;;;;;;;;;;5029168;28;19917;-56
2022/10/05 04:52:04;;;;;;;;;;;;;;;;;;5028007;28;20011;-55
2022/10/05 04:54:47;;;;;;;;;;;;;;;;;;5024433;28;20444;-55
2022/10/05 04:57:15;;;;;;;;;;;;;;;;;;5028311;28;20397;-59
2022/10/05 04:59:51;;;;;;;;;;;;;;;;;;5028994;28;20076;-56
2022/10/05 05:02:16;;;;;;;;;;;;;;;;;;5015125;28;20406;-56
2022/10/05 05:04:58;;;;;;;;;;;;;;;;;;5025759;28;19951;-56
2022/10/05 05:07:50;;;;;;;;;;;;;;;;;;5026133;28;19920;-61
2022/10/05 05:10:18;;;;;;;;;;;;;;;;;;5024424;28;19913;-59
2022/10/05 05:12:49;;;;;;;;;;;;;;;;;;5032124;28;19913;-59
2022/10/05 05:15:14;;;;;;;;;;;;;;;;;;5027100;28;19979;-59
2022/10/05 05:17:40;;;;;;;;;;;;;;;;;;5030900;28;19968;-59
2022/10/05 05:20:24;;;;;;;;;;;;;;;;;;5031062;28;19959;-59
2022/10/05 05:23:08;;;;;;;;;;;;;;;;;;5030363;28;19920;-59
2022/10/05 05:25:40;;;;;;;;;;;;;;;;;;5030175;28;19916;-59
2022/10/05 05:28:05;;;;;;;;;;;;;;;;;;5029553;28;19917;-59
2022/10/05 05:30:50;;;;;;;;;;;;;;;;;;5028550;28;20344;-59
2022/10/05 05:33:33;;;;;;;;;;;;;;;;;;5027555;28;19994;-59
2022/10/05 05:36:08;;;;;;;;;;;;;;;;;;5033565;28;19963;-59
2022/10/05 05:38:51;;;;;;;;;;;;;;;;;;5030737;28;19917;-59
2022/10/05 05:41:23;;;;;;;;;;;;;;;;;;5029425;28;19913;-59
2022/10/05 05:43:49;;;;;;;;;;;;;;;;;;5037916;28;20008;-59
2022/10/05 05:46:37;;;;;;;;;;;;;;;;;;5031510;28;20016;-60
2022/10/05 05:49:10;;;;;;;;;;;;;;;;;;5022296;28;19913;-60
2022/10/05 05:51:42;;;;;;;;;;;;;;;;;;5031216;28;19913;-60
2022/10/05 05:54:10;;;;;;;;;;;;;;;;;;5032297;28;20163;-60
2022/10/05 05:56:40;;;;;;;;;;;;;;;;;;5029854;28;19920;-60
2022/10/05 05:59:18;;;;;;;;;;;;;;;;;;5030990;28;19913;-60
2022/10/05 06:01:57;;;;;;;;;;;;;;;;;;5030366;28;20333;-60
2022/10/05 06:04:51;;;;;;;;;;;;;;;;;;5021682;28;19919;-60
2022/10/05 06:07:21;;;;;;;;;;;;;;;;;;5015087;28;19914;-61
2022/10/05 06:09:49;;;;;;;;;;;;;;;;;;5029616;28;19913;-61
2022/10/05 06:12:17;;;;;;;;;;;;;;;;;;5020830;28;19951;-60
2022/10/05 06:14:45;;;;;;;;;;;;;;;;;;5031852;28;19928;-60
2022/10/05 06:17:32;;;;;;;;;;;;;;;;;;5028079;28;19912;-60
2022/10/05 06:19:59;;;;;;;;;;;;;;;;;;5025062;28;19920;-60
2022/10/05 06:22:28;;;;;;;;;;;;;;;;;;5030731;28;19913;-60
2022/10/05 06:24:56;;;;;;;;;;;;;;;;;;5030714;28;19924;-60
2022/10/05 06:27:26;;;;;;;;;;;;;;;;;;5028364;28;19913;-60
2022/10/05 06:29:54;;;;;;;;;;;;;;;;;;5031116;28;19917;-59
2022/10/05 06:32:38;;;;;;;;;;;;;;;;;;5030703;28;19909;-60
2022/10/05 06:35:21;;;;;;;;;;;;;;;;;;5030448;28;20347;-61
2022/10/05 06:37:46;;;;;;;;;;;;;;;;;;5030409;28;20334;-59
2022/10/05 06:40:26;;;;;;;;;;;;;;;;;;5031318;28;19909;-59
2022/10/05 06:42:54;;;;;;;;;;;;;;;;;;5030020;28;20051;-59
2022/10/05 06:45:38;;;;;;;;;;;;;;;;;;5030417;28;19913;-59
2022/10/05 06:48:09;;;;;;;;;;;;;;;;;;5029293;28;19925;-60
2022/10/05 06:50:51;;;;;;;;;;;;;;;;;;5031083;28;19913;-59
2022/10/05 06:53:16;;;;;;;;;;;;;;;;;;5032498;28;19919;-60
2022/10/05 06:56:00;;;;;;;;;;;;;;;;;;5029664;28;19913;-60
2022/10/05 06:58:44;;;;;;;;;;;;;;;;;;5027976;28;19939;-59
2022/10/05 07:01:14;;;;;;;;;;;;;;;;;;5029453;28;20266;-60
2022/10/05 07:03:40;;;;;;;;;;;;;;;;;;5027126;28;20131;-60
2022/10/05 07:06:10;;;;;;;;;;;;;;;;;;5029118;28;19913;-60
2022/10/05 07:08:41;;;;;;;;;;;;;;;;;;5029692;28;19913;-60
2022/10/05 07:11:26;;;;;;;;;;;;;;;;;;5030122;28;20020;-60
2022/10/05 07:13:58;;;;;;;;;;;;;;;;;;5028867;28;19924;-59
2022/10/05 07:16:44;;;;;;;;;;;;;;;;;;5030505;28;19956;-60
2022/10/05 07:19:18;;;;;;;;;;;;;;;;;;5025929;28;20000;-60
2022/10/05 07:21:49;;;;;;;;;;;;;;;;;;5027245;28;19916;-59
2022/10/05 07:24:18;;;;;;;;;;;;;;;;;;5032297;28;19913;-60
2022/10/05 07:26:53;;;;;;;;;;;;;;;;;;5029212;28;19940;-60
2022/10/05 07:29:30;;;;;;;;;;;;;;;;;;5027484;28;20397;-60
2022/10/05 07:32:05;;;;;;;;;;;;;;;;;;5027482;28;20367;-60
2022/10/05 07:34:46;;;;;;;;;;;;;;;;;;5030820;28;19966;-60
2022/10/05 07:40:03;;;;;;;;;;;;;;;;;;5028560;28;19967;-60
2022/10/05 07:42:48;;;;;;;;;;;;;;;;;;5028051;28;20294;-59
2022/10/05 07:45:21;;;;;;;;;;;;;;;;;;5027918;28;19956;-60
2022/10/05 07:47:51;;;;;;;;;;;;;;;;;;5028512;28;20063;-60
2022/10/05 07:50:25;;;;;;;;;;;;;;;;;;5029338;28;19913;-60
2022/10/05 07:53:01;;;;;;;;;;;;;;;;;;5027367;28;19913;-61
2022/10/05 07:55:33;;;;;;;;;;;;;;;;;;5027244;28;20893;-60
2022/10/05 07:58:03;;;;;;;;;;;;;;;;;;5024641;28;19921;-60
2022/10/05 08:00:47;;;;;;;;;;;;;;;;;;5029640;28;19917;-60
2022/10/05 08:03:16;;;;;;;;;;;;;;;;;;5022915;28;19912;-60
2022/10/05 08:05:44;;;;;;;;;;;;;;;;;;5026845;28;20172;-60
2022/10/05 08:08:09;;;;;;;;;;;;;;;;;;5028862;28;19913;-60
2022/10/05 08:10:34;;;;;;;;;;;;;;;;;;5028608;28;20452;-60
2022/10/05 08:13:11;;;;;;;;;;;;;;;;;;5027593;28;20320;-59
2022/10/05 08:15:46;;;;;;;;;;;;;;;;;;5027567;28;19917;-60
2022/10/05 08:18:35;;;;;;;;;;;;;;;;;;5026313;28;19913;-60
2022/10/05 08:21:01;;;;;;;;;;;;;;;;;;5026610;28;19946;-60
2022/10/05 08:23:35;;;;;;;;;;;;;;;;;;5026803;28;20108;-60
2022/10/05 08:26:12;;;;;;;;;;;;;;;;;;5027107;28;19978;-60
2022/10/05 08:28:40;;;;;;;;;;;;;;;;;;5028610;28;19913;-60
2022/10/05 08:31:14;;;;;;;;;;;;;;;;;;5029071;28;19928;-60
2022/10/05 08:33:52;;;;;;;;;;;;;;;;;;5026593;28;19921;-60
2022/10/05 08:36:21;;;;;;;;;;;;;;;;;;5028118;28;19917;-60
2022/10/05 08:38:48;;;;;;;;;;;;;;;;;;5028755;28;19917;-60
2022/10/05 08:41:32;;;;;;;;;;;;;;;;;;5028924;28;19960;-60
2022/10/05 08:44:00;;;;;;;;;;;;;;;;;;5028615;28;19913;-60
2022/10/05 08:46:28;;;;;;;;;;;;;;;;;;5025478;28;19921;-60
2022/10/05 08:49:12;;;;;;;;;;;;;;;;;;5028966;28;19921;-60
2022/10/05 08:51:37;;;;;;;;;;;;;;;;;;5028296;28;19963;-60
2022/10/05 08:54:12;;;;;;;;;;;;;;;;;;5030637;28;19953;-60
2022/10/05 08:56:42;;;;;;;;;;;;;;;;;;5037155;28;19912;-60
2022/10/05 08:59:19;;;;;;;;;;;;;;;;;;5032408;28;20298;-60
2022/10/05 09:01:50;;;;;;;;;;;;;;;;;;5029683;28;20011;-60
2022/10/05 09:04:24;;;;;;;;;;;;;;;;;;5032154;28;19938;-60
2022/10/05 09:06:55;;;;;;;;;;;;;;;;;;5030716;28;19920;-60
2022/10/05 09:09:21;;;;;;;;;;;;;;;;;;5029724;28;19927;-60
2022/10/05 09:11:52;;;;;;;;;;;;;;;;;;5029703;28;19913;-60
2022/10/05 09:14:27;;;;;;;;;;;;;;;;;;5045595;28;19917;-61
2022/10/05 09:17:15;;;;;;;;;;;;;;;;;;5029794;28;19927;-61
2022/10/05 09:19:52;;;;;;;;;;;;;;;;;;5028511;28;19921;-61
2022/10/05 09:22:44;;;;;;;;;;;;;;;;;;5030897;28;19956;-61
2022/10/05 09:25:28;;;;;;;;;;;;;;;;;;5031158;28;19951;-61
2022/10/05 09:28:02;;;;;;;;;;;;;;;;;;5030331;28;19920;-61
2022/10/05 09:30:34;;;;;;;;;;;;;;;;;;5032595;28;19935;-61
2022/10/05 09:33:20;;;;;;;;;;;;;;;;;;5035568;28;19917;-61
2022/10/05 09:35:45;;;;;;;;;;;;;;;;;;5028271;28;20354;-61
2022/10/05 09:38:16;;;;;;;;;;;;;;;;;;5031336;28;19964;-60
2022/10/05 09:40:43;;;;;;;;;;;;;;;;;;5030304;28;20347;-61
2022/10/05 09:43:08;;;;;;;;;;;;;;;;;;5030647;28;19913;-60
2022/10/05 09:45:52;;;;;;;;;;;;;;;;;;5028385;28;19993;-61
2022/10/05 09:48:35;;;;;;;;;;;;;;;;;;5028261;28;19913;-61
2022/10/05 09:51:09;;;;;;;;;;;;;;;;;;5027040;28;19930;-61
2022/10/05 09:53:45;;;;;;;;;;;;;;;;;;5028876;28;19924;-61
2022/10/05 09:56:19;;;;;;;;;;;;;;;;;;5029042;28;19943;-59
2022/10/05 09:58:57;;;;;;;;;;;;;;;;;;5027387;28;20027;-59
2022/10/05 10:01:31;;;;;;;;;;;;;;;;;;5026339;28;19975;-61
2022/10/05 10:03:57;;;;;;;;;;;;;;;;;;5029325;28;19920;-61
2022/10/05 10:06:25;;;;;;;;;;;;;;;;;;5029019;28;20329;-61
2022/10/05 10:09:09;;;;;;;;;;;;;;;;;;5030070;28;19954;-61
2022/10/05 10:11:46;;;;;;;;;;;;;;;;;;5028194;28;19939;-61
2022/10/05 10:14:23;;;;;;;;;;;;;;;;;;5028357;28;20413;-59
2022/10/05 10:16:55;;;;;;;;;;;;;;;;;;5029483;28;19920;-59
2022/10/05 10:19:26;;;;;;;;;;;;;;;;;;5029635;28;19970;-59
2022/10/05 10:22:09;;;;;;;;;;;;;;;;;;5028569;28;19924;-60
2022/10/05 10:24:37;;;;;;;;;;;;;;;;;;5028947;28;20003;-60
2022/10/05 10:27:05;;;;;;;;;;;;;;;;;;5026766;28;19947;-59
2022/10/05 10:29:46;;;;;;;;;;;;;;;;;;5029931;28;19923;-59
2022/10/05 10:32:11;;;;;;;;;;;;;;;;;;5041427;28;19913;-60
2022/10/05 10:34:36;;;;;;;;;;;;;;;;;;5028690;28;20398;-61
2022/10/05 10:37:20;;;;;;;;;;;;;;;;;;5029506;28;19990;-60
2022/10/05 10:40:04;;;;;;;;;;;;;;;;;;5028234;28;19966;-60
2022/10/05 10:42:36;;;;;;;;;;;;;;;;;;5027499;28;19920;-60
2022/10/05 10:45:01;;;;;;;;;;;;;;;;;;5030275;28;19912;-60
2022/10/05 10:47:44;;;;;;;;;;;;;;;;;;5033835;28;20389;-60
2022/10/05 10:50:24;;;;;;;;;;;;;;;;;;5034040;28;19913;-60
2022/10/05 10:52:55;;;;;;;;;;;;;;;;;;5028918;28;19974;-60
2022/10/05 10:55:21;;;;;;;;;;;;;;;;;;5028825;28;20401;-64
2022/10/05 10:57:49;;;;;;;;;;;;;;;;;;5028655;28;19913;-60
2022/10/05 11:00:14;;;;;;;;;;;;;;;;;;5025854;28;19928;-61
2022/10/05 11:02:58;;;;;;;;;;;;;;;;;;5028242;28;20299;-60
2022/10/05 11:05:26;;;;;;;;;;;;;;;;;;5029856;28;20004;-62
2022/10/05 11:08:11;;;;;;;;;;;;;;;;;;5027858;28;19967;-61
2022/10/05 11:10:36;;;;;;;;;;;;;;;;;;5029537;28;19913;-61
2022/10/05 11:13:02;;;;;;;;;;;;;;;;;;5028105;28;20561;-61
2022/10/05 11:15:46;;;;;;;;;;;;;;;;;;5028000;28;19924;-61
2022/10/05 11:18:20;;;;;;;;;;;;;;;;;;5022844;28;19924;-60
2022/10/05 11:20:45;;;;;;;;;;;;;;;;;;5025959;28;20314;-60
2022/10/05 11:23:28;;;;;;;;;;;;;;;;;;5026130;28;19913;-61
2022/10/05 11:26:05;;;;;;;;;;;;;;;;;;5027422;28;20562;-63
2022/10/05 11:28:30;;;;;;;;;;;;;;;;;;5027328;28;20399;-61
2022/10/05 11:30:55;;;;;;;;;;;;;;;;;;5028120;28;19989;-62
2022/10/05 11:33:41;;;;;;;;;;;;;;;;;;5028315;28;20398;-61
2022/10/05 11:36:25;;;;;;;;;;;;;;;;;;5025145;28;20116;-63
2022/10/05 11:39:10;;;;;;;;;;;;;;;;;;5026464;28;19920;-61
2022/10/05 11:41:53;;;;;;;;;;;;;;;;;;5028398;28;19919;-56
2022/10/05 11:44:19;;;;;;;;;;;;;;;;;;5040196;28;19967;-56
2022/10/05 11:46:53;;;;;;;;;;;;;;;;;;5027839;28;19921;-56
2022/10/05 11:49:24;;;;;;;;;;;;;;;;;;5026565;28;20014;-56
2022/10/05 11:52:02;;;;;;;;;;;;;;;;;;5027035;28;19955;-56
2022/10/05 11:54:31;;;;;;;;;;;;;;;;;;5025383;28;19921;-56
2022/10/05 11:57:17;;;;;;;;;;;;;;;;;;5025861;28;19919;-56
2022/10/05 11:59:56;;;;;;;;;;;;;;;;;;5027678;28;20374;-56
2022/10/05 12:02:40;;;;;;;;;;;;;;;;;;5026002;28;19912;-56
2022/10/05 12:05:05;;;;;;;;;;;;;;;;;;5026978;28;20282;-56
2022/10/05 12:07:46;;;;;;;;;;;;;;;;;;5026836;28;19920;-56
2022/10/05 12:10:22;;;;;;;;;;;;;;;;;;5025805;28;20000;-56
2022/10/05 12:13:03;;;;;;;;;;;;;;;;;;5025702;28;19928;-56
2022/10/05 12:15:51;;;;;;;;;;;;;;;;;;5026835;28;19956;-56
2022/10/05 12:18:21;;;;;;;;;;;;;;;;;;5024099;28;19956;-56
2022/10/05 12:21:15;;;;;;;;;;;;;;;;;;5026788;28;19919;-61
2022/10/05 12:23:50;;;;;;;;;;;;;;;;;;5013215;28;19916;-61
2022/10/05 12:26:19;;;;;;;;;;;;;;;;;;5029609;28;20448;-61
2022/10/05 12:29:01;;;;;;;;;;;;;;;;;;5035537;28;20387;-61
2022/10/05 12:31:38;;;;;;;;;;;;;;;;;;5025735;28;19924;-61
2022/10/05 12:34:12;;;;;;;;;;;;;;;;;;5030662;28;20003;-61
2022/10/05 12:37:10;;;;;;;;;;;;;;;;;;5030293;28;20369;-61
2022/10/05 12:39:38;;;;;;;;;;;;;;;;;;5018512;28;19928;-61
2022/10/05 12:42:24;;;;;;;;;;;;;;;;;;5030055;28;19924;-60
2022/10/05 12:44:59;;;;;;;;;;;;;;;;;;5031049;28;19917;-61
2022/10/05 12:47:34;;;;;;;;;;;;;;;;;;5030744;28;19920;-61
2022/10/05 12:50:18;;;;;;;;;;;;;;;;;;5028897;28;19920;-61
2022/10/05 12:52:59;;;;;;;;;;;;;;;;;;5029977;28;19913;-61
2022/10/05 12:55:28;;;;;;;;;;;;;;;;;;5029512;28;19917;-61
2022/10/05 12:58:04;;;;;;;;;;;;;;;;;;5029168;28;19921;-61
2022/10/05 13:00:32;;;;;;;;;;;;;;;;;;5030756;28;19913;-61
2022/10/05 13:03:07;;;;;;;;;;;;;;;;;;5029760;28;20298;-62
2022/10/05 13:06:07;;;;;;;;;;;;;;;;;;5028904;28;19913;-61
2022/10/05 13:08:44;;;;;;;;;;;;;;;;;;4990640;28;19914;-59
2022/10/05 13:11:35;;;;;;;;;;;;;;;;;;5023861;28;20290;-60
2022/10/05 13:14:04;;;;;;;;;;;;;;;;;;5028588;28;19925;-59
2022/10/05 13:16:41;;;;;;;;;;;;;;;;;;5029591;28;19919;-60
2022/10/05 13:19:20;;;;;;;;;;;;;;;;;;5029971;28;20509;-59
2022/10/05 13:21:50;;;;;;;;;;;;;;;;;;5025750;28;19959;-63
2022/10/05 13:24:22;;;;;;;;;;;;;;;;;;5029048;28;20573;-60
2022/10/05 13:26:51;;;;;;;;;;;;;;;;;;5029718;28;19917;-64
2022/10/05 13:29:37;;;;;;;;;;;;;;;;;;5030340;28;19967;-64
2022/10/05 13:32:06;;;;;;;;;;;;;;;;;;5028095;28;19978;-64
2022/10/05 13:34:34;;;;;;;;;;;;;;;;;;5030338;28;19963;-63
2022/10/05 13:37:02;;;;;;;;;;;;;;;;;;5027148;28;20011;-63
2022/10/05 13:39:27;;;;;;;;;;;;;;;;;;5029741;28;19913;-62
2022/10/05 13:41:55;;;;;;;;;;;;;;;;;;5029224;28;20640;-60
2022/10/05 13:44:23;;;;;;;;;;;;;;;;;;5029051;28;19917;-60
2022/10/05 13:46:57;;;;;;;;;;;;;;;;;;5027483;28;19921;-60
2022/10/05 13:49:30;;;;;;;;;;;;;;;;;;5030329;28;19913;-60
2022/10/05 13:51:58;;;;;;;;;;;;;;;;;;5029862;28;19952;-61
2022/10/05 13:54:42;;;;;;;;;;;;;;;;;;5030828;28;19917;-61
2022/10/05 13:57:10;;;;;;;;;;;;;;;;;;5028047;28;19920;-60
2022/10/05 13:59:41;;;;;;;;;;;;;;;;;;5029998;28;19913;-59
2022/10/05 14:02:35;;;;;;;;;;;;;;;;;;5026022;28;19913;-59
2022/10/05 14:05:13;;;;;;;;;;;;;;;;;;5018031;28;19921;-60
2022/10/05 14:07:47;;;;;;;;;;;;;;;;;;5028798;28;19913;-59
2022/10/05 14:10:13;;;;;;;;;;;;;;;;;;5028000;28;19912;-59
2022/10/05 14:12:39;;;;;;;;;;;;;;;;;;5028204;28;19917;-59
2022/10/05 14:15:34;;;;;;;;;;;;;;;;;;5028061;28;19991;-59
2022/10/05 14:18:16;;;;;;;;;;;;;;;;;;5027139;28;20271;-59
2022/10/05 14:20:55;;;;;;;;;;;;;;;;;;5029170;28;19972;-59
2022/10/05 14:23:23;;;;;;;;;;;;;;;;;;5030054;28;20309;-59
2022/10/05 14:25:53;;;;;;;;;;;;;;;;;;5029322;28;20002;-59
2022/10/05 14:28:24;;;;;;;;;;;;;;;;;;5030118;28;19916;-59
2022/10/05 14:30:57;;;;;;;;;;;;;;;;;;5030277;28;19928;-59
2022/10/05 14:33:23;;;;;;;;;;;;;;;;;;5028594;28;19958;-59
2022/10/05 14:35:48;;;;;;;;;;;;;;;;;;5035583;28;20353;-59
2022/10/05 14:38:16;;;;;;;;;;;;;;;;;;5030594;28;19915;-60
2022/10/05 14:40:41;;;;;;;;;;;;;;;;;;5029109;28;20401;-59
2022/10/05 14:43:13;;;;;;;;;;;;;;;;;;5027561;28;19913;-60
2022/10/05 14:45:50;;;;;;;;;;;;;;;;;;5027900;28;19924;-59
2022/10/05 14:48:16;;;;;;;;;;;;;;;;;;5028846;28;20302;-58
2022/10/05 14:50:53;;;;;;;;;;;;;;;;;;5028538;28;20391;-59
2022/10/05 14:53:20;;;;;;;;;;;;;;;;;;5028996;28;19913;-59
2022/10/05 14:55:48;;;;;;;;;;;;;;;;;;5029312;28;19924;-59
2022/10/05 14:58:25;;;;;;;;;;;;;;;;;;5030806;28;19920;-58
2022/10/05 15:01:02;;;;;;;;;;;;;;;;;;5029586;28;19912;-60
2022/10/05 15:03:34;;;;;;;;;;;;;;;;;;5028422;28;19920;-61
2022/10/05 15:06:01;;;;;;;;;;;;;;;;;;5030882;28;19975;-61
2022/10/05 15:08:45;;;;;;;;;;;;;;;;;;5029731;28;19920;-61
2022/10/05 15:11:13;;;;;;;;;;;;;;;;;;5028322;28;19936;-61
2022/10/05 15:13:40;;;;;;;;;;;;;;;;;;5028136;28;19916;-61
2022/10/05 15:16:08;;;;;;;;;;;;;;;;;;5032178;28;19943;-61
2022/10/05 15:18:48;;;;;;;;;;;;;;;;;;5029167;28;20389;-61
2022/10/05 15:21:28;;;;;;;;;;;;;;;;;;5031994;28;20393;-61
2022/10/05 15:23:54;;;;;;;;;;;;;;;;;;5044668;28;20310;-61
2022/10/05 15:26:25;;;;;;;;;;;;;;;;;;5028524;28;19912;-61
2022/10/05 15:28:59;;;;;;;;;;;;;;;;;;5027450;28;20164;-61
2022/10/05 15:31:25;;;;;;;;;;;;;;;;;;5028300;28;19919;-61
2022/10/05 15:33:52;;;;;;;;;;;;;;;;;;5029919;28;19921;-61
2022/10/05 15:36:38;;;;;;;;;;;;;;;;;;5031894;28;19925;-61
2022/10/05 15:39:22;;;;;;;;;;;;;;;;;;5028849;28;20385;-61
2022/10/05 15:42:02;;;;;;;;;;;;;;;;;;5030217;28;19912;-61
2022/10/05 15:44:34;;;;;;;;;;;;;;;;;;5028741;28;20387;-61
2022/10/05 15:47:07;;;;;;;;;;;;;;;;;;5026665;28;20032;-61
2022/10/05 15:49:56;;;;;;;;;;;;;;;;;;5027274;28;20337;-61
2022/10/05 15:52:26;;;;;;;;;;;;;;;;;;5029232;28;19921;-61
2022/10/05 15:54:54;;;;;;;;;;;;;;;;;;5028209;28;20397;-61
2022/10/05 15:57:38;;;;;;;;;;;;;;;;;;5028143;28;19913;-61
2022/10/05 16:00:12;;;;;;;;;;;;;;;;;;5028910;28;19982;-62
2022/10/05 16:02:44;;;;;;;;;;;;;;;;;;5026085;28;19971;-61
2022/10/05 16:05:15;;;;;;;;;;;;;;;;;;5027612;28;19927;-61
2022/10/05 16:10:36;;;;;;;;;;;;;;;;;;5026929;28;19923;-61
2022/10/05 16:13:27;;;;;;;;;;;;;;;;;;5027567;28;19924;-61
2022/10/05 16:16:00;;;;;;;;;;;;;;;;;;5052733;28;19920;-61
2022/10/05 16:18:40;;;;;;;;;;;;;;;;;;5028094;28;19913;-61
2022/10/05 16:21:20;;;;;;;;;;;;;;;;;;5024829;28;20082;-61
2022/10/05 16:23:46;;;;;;;;;;;;;;;;;;5026005;28;19913;-61
2022/10/05 16:26:14;;;;;;;;;;;;;;;;;;5027024;28;20287;-61
2022/10/05 16:28:51;;;;;;;;;;;;;;;;;;5026038;28;20045;-61
2022/10/05 16:31:40;;;;;;;;;;;;;;;;;;5027922;28;20374;-61
2022/10/05 16:34:16;;;;;;;;;;;;;;;;;;5023796;28;19916;-61
2022/10/05 16:36:56;;;;;;;;;;;;;;;;;;5024730;28;20405;-61
2022/10/05 16:39:25;;;;;;;;;;;;;;;;;;5024885;28;19920;-61
2022/10/05 16:41:55;;;;;;;;;;;;;;;;;;5026343;28;19913;-62
2022/10/05 16:44:32;;;;;;;;;;;;;;;;;;5027764;28;19970;-61
2022/10/05 16:47:00;;;;;;;;;;;;;;;;;;5028056;28;19967;-61
2022/10/05 16:49:43;;;;;;;;;;;;;;;;;;5027847;28;20375;-61
2022/10/05 16:52:15;;;;;;;;;;;;;;;;;;5024474;28;19913;-61
2022/10/05 16:54:50;;;;;;;;;;;;;;;;;;5026537;28;20014;-61
2022/10/05 16:57:24;;;;;;;;;;;;;;;;;;5021863;28;20367;-61
2022/10/05 16:59:49;;;;;;;;;;;;;;;;;;5028304;28;19935;-61
2022/10/05 17:02:35;;;;;;;;;;;;;;;;;;5027821;28;20383;-62
2022/10/05 17:05:00;;;;;;;;;;;;;;;;;;5029139;28;19920;-61
2022/10/05 17:07:25;;;;;;;;;;;;;;;;;;5026334;28;19917;-61
2022/10/05 17:09:58;;;;;;;;;;;;;;;;;;5029182;28;19920;-61
2022/10/05 17:12:44;;;;;;;;;;;;;;;;;;5029900;28;19970;-61
2022/10/05 17:15:28;;;;;;;;;;;;;;;;;;5031365;28;20383;-61
2022/10/05 17:17:53;;;;;;;;;;;;;;;;;;5035136;28;19944;-61
2022/10/05 17:20:25;;;;;;;;;;;;;;;;;;5032555;28;19913;-61
2022/10/05 17:22:51;;;;;;;;;;;;;;;;;;5032783;28;19983;-61
2022/10/05 17:25:18;;;;;;;;;;;;;;;;;;5032332;28;20345;-61
2022/10/05 17:27:49;;;;;;;;;;;;;;;;;;5030270;28;19909;-61
2022/10/05 17:30:17;;;;;;;;;;;;;;;;;;5030999;28;19913;-61
2022/10/05 17:33:16;;;;;;;;;;;;;;;;;;5028891;28;19950;-61
2022/10/05 17:35:52;;;;;;;;;;;;;;;;;;5028891;28;19971;-60